NCAR-RAP Real-Time Weather Data

Output produced by METARs form (14 October 2019  23:20 UTC)
found at http://weather.rap.ucar.edu/surface/
 
KIND 142254Z 26007KT 10SM FEW090 14/03 A3007 RMK AO2 SLP185 T01390028 $
KIND 142154Z 29008KT 10SM FEW060 17/03 A3007 RMK AO2 SLP183 T01670028 $
KIND 142054Z 26009KT 10SM FEW060 17/02 A3007 RMK AO2 SLP183 T01720022 56008 $
KIND 141954Z 27008KT 10SM FEW060 17/02 A3008 RMK AO2 SLP185 T01670022 $
KIND 141854Z 27009KT 10SM FEW060 16/02 A3009 RMK AO2 SLP188 T01610017 $
KIND 141754Z 28012G16KT 10SM CLR 16/02 A3010 RMK AO2 SLP191 T01610017 10161 20033 58004 $
KIND 141654Z 27012G16KT 10SM CLR 15/01 A3011 RMK AO2 SLP197 T01500011 $
KIND 141554Z 30005KT 10SM CLR 13/02 A3011 RMK AO2 SLP198 T01330017 $
KIND 141454Z 26004KT 10SM CLR 12/01 A3011 RMK AO2 SLP197 T01170011 51017 $
KIND 141354Z 27004KT 10SM CLR 09/03 A3011 RMK AO2 SLP198 T00890033
KIND 141254Z 23005KT 10SM CLR 06/03 A3009 RMK AO2 SLP190 T00560028
KIND 141154Z 27004KT 10SM CLR 03/01 A3006 RMK AO2 SLP181 T00330011 10083 20033 51015
KIND 141054Z 21005KT 10SM CLR 04/02 A3005 RMK AO2 SLP175 T00390017
KIND 140954Z 00000KT 10SM CLR 05/02 A3003 RMK AO2 SLP168 T00500017
KIND 140854Z 00000KT 10SM CLR 07/02 A3001 RMK AO2 SLP163 T00670022 51013
KIND 140754Z 30003KT 10SM CLR 06/02 A3000 RMK AO2 SLP157 T00610022
KIND 140654Z 34007KT 10SM CLR 08/02 A2999 RMK AO2 SLP156 T00780022
KIND 140554Z 33007KT 10SM CLR 08/03 A2997 RMK AO2 SLP149 T00830028 10133 20083 51012
KIND 140454Z 29005KT 10SM CLR 08/03 A2997 RMK AO2 SLP147 T00830033 401940033
KIND 140354Z 23008KT 10SM CLR 10/03 A2995 RMK AO2 SLP141 T01000033
KIND 140254Z 24007KT 10SM CLR 10/04 A2994 RMK AO2 SLP138 T01000039 51015
KIND 140154Z 21008KT 10SM CLR 11/04 A2992 RMK AO2 SLP134 T01110039
KIND 140054Z 22007KT 10SM FEW110 12/03 A2991 RMK AO2 SLP130 T01170033
KIND 132354Z 21008KT 10SM FEW110 13/03 A2989 RMK AO2 SLP123 T01330028 10194 20133 53006
KIND 132254Z 21014KT 10SM FEW110 17/02 A2988 RMK AO2 PK WND 20026/2219 SLP117 T01670017
KIND 132154Z 23015G24KT 10SM CLR 18/02 A2988 RMK AO2 PK WND 20026/2115 SLP119 T01830022
KIND 132054Z 22017KT 10SM CLR 19/02 A2987 RMK AO2 SLP115 T01940022 56017
KIND 131954Z 23014KT 10SM CLR 19/03 A2988 RMK AO2 SLP117 T01890028
KIND 131854Z 22013KT 10SM CLR 18/03 A2990 RMK AO2 SLP124 T01830033
KIND 131754Z 20011KT 10SM CLR 17/03 A2993 RMK AO2 SLP134 T01720028 10172 20044 58016
KIND 131654Z 23011G17KT 10SM CLR 16/03 A2995 RMK AO2 SLP141 T01560028
KIND 131554Z 22014KT 10SM FEW250 14/02 A2996 RMK AO2 SLP146 T01390022
KIND 131454Z 24011KT 10SM FEW250 12/02 A2997 RMK AO2 SLP151 T01170022 56002 $
KIND 131354Z 21008KT 10SM FEW250 09/02 A2997 RMK AO2 SLP152 T00940022 $
KIND 131254Z 21009KT 10SM FEW250 07/02 A2997 RMK AO2 SLP151 T00670017 $
KIND 131154Z 20008KT 10SM FEW250 04/01 A2998 RMK AO2 SLP155 T00440011 10056 20033 56002 $
KIND 131054Z 19006KT 10SM CLR 04/01 A2998 RMK AO2 SLP154 T00440006 $
KIND 130954Z 19008KT 10SM CLR 04/01 A2998 RMK AO2 SLP155 T00440006 $
KIND 130854Z 18006KT 10SM CLR 05/01 A2998 RMK AO2 SLP155 T00500006 58006 $
KIND 130754Z 19010KT 10SM CLR 05/01 A2999 RMK AO2 SLP158 T00500006 $
KIND 130654Z 19009KT 10SM CLR 06/00 A3000 RMK AO2 SLP161 T00560000 $
KIND 130554Z 20005KT 10SM CLR 04/00 A3000 RMK AO2 SLP163 T00390000 10083 20039 56009 $
KIND 130454Z 18006KT 10SM CLR 06/00 A3001 RMK AO2 SLP166 T00560000 401220011 $
KIND 130354Z 18010KT 10SM CLR 07/01 A3002 RMK AO2 SLP167 T00670006 $
KIND 130254Z 19008KT 10SM CLR 07/00 A3003 RMK AO2 SLP173 T00670000 56005 $
KIND 130154Z 19007KT 10SM CLR 07/00 A3004 RMK AO2 SLP175 T00720000 $
KIND 130054Z 19010KT 10SM CLR 08/M01 A3004 RMK AO2 SLP176 T00831006 $
KIND 122354Z 20008KT 10SM CLR 08/M01 A3005 RMK AO2 SLP179 T00781006 10122 20078 55003 $